createdAt,value
2016-09-26T00:00:08.363Z,98.18
2016-09-26T00:01:07.942Z,98.07
2016-09-26T00:02:07.493Z,97.72
2016-09-26T00:03:07.988Z,97.84
2016-09-26T00:04:07.478Z,97.84
2016-09-26T00:05:07.953Z,97.76
2016-09-26T00:06:07.620Z,97.79
2016-09-26T00:07:08.183Z,97.93
2016-09-26T00:08:07.739Z,97.71
2016-09-26T00:09:08.398Z,97.59
2016-09-26T00:10:07.965Z,98.00
2016-09-26T00:11:07.761Z,98.28
2016-09-26T00:12:08.328Z,98.18
2016-09-26T00:13:07.911Z,98.46
2016-09-26T00:14:08.487Z,98.69
2016-09-26T00:15:07.973Z,98.79
2016-09-26T00:16:07.532Z,98.30
2016-09-26T00:17:08.180Z,98.41
2016-09-26T00:18:07.757Z,98.26
2016-09-26T00:19:08.378Z,97.91
2016-09-26T00:20:07.868Z,97.90
2016-09-26T00:21:08.485Z,97.75
2016-09-26T00:22:08.038Z,97.74
2016-09-26T00:23:07.592Z,97.57
2016-09-26T00:24:08.164Z,97.88
2016-09-26T00:25:07.788Z,97.74
2016-09-26T00:26:08.455Z,98.03
2016-09-26T00:27:08.034Z,98.15
2016-09-26T00:28:07.524Z,97.87
2016-09-26T00:29:08.104Z,97.60
2016-09-26T00:30:07.597Z,98.28
2016-09-26T00:31:08.190Z,97.79
2016-09-26T00:32:07.652Z,98.02
2016-09-26T00:33:08.176Z,98.03
2016-09-26T00:34:07.702Z,98.06
2016-09-26T00:35:08.262Z,98.12
2016-09-26T00:36:07.752Z,98.19
2016-09-26T00:37:08.319Z,98.15
2016-09-26T00:38:07.960Z,98.04
2016-09-26T00:39:07.437Z,98.47
2016-09-26T00:40:08.080Z,98.32
2016-09-26T00:41:07.631Z,98.57
2016-09-26T00:42:08.099Z,98.92
2016-09-26T00:43:07.673Z,98.74
2016-09-26T00:44:08.243Z,98.53
2016-09-26T00:45:07.742Z,98.71
2016-09-26T00:46:08.260Z,98.63
2016-09-26T00:47:07.814Z,98.55
2016-09-26T00:48:08.414Z,98.79
2016-09-26T00:49:07.962Z,98.71
2016-09-26T00:50:07.507Z,98.37
2016-09-26T00:51:08.164Z,97.94
2016-09-26T00:52:07.861Z,98.12
2016-09-26T00:53:08.420Z,98.18
2016-09-26T00:54:07.891Z,98.19
2016-09-26T00:55:08.398Z,98.65
2016-09-26T00:56:08.167Z,98.49
2016-09-26T00:57:07.770Z,98.83
2016-09-26T00:58:08.383Z,98.61
2016-09-26T00:59:08.035Z,99.10
2016-09-26T01:00:07.722Z,98.40
2016-09-26T01:01:08.404Z,98.41
2016-09-26T01:02:08.555Z,98.43
2016-09-26T01:03:07.582Z,98.78
2016-09-26T01:04:08.053Z,99.13
2016-09-26T01:05:07.776Z,99.36
2016-09-26T01:06:08.526Z,99.38
2016-09-26T01:07:08.445Z,98.92
2016-09-26T01:08:08.034Z,98.82
2016-09-26T01:09:07.717Z,98.60
2016-09-26T01:10:08.381Z,98.79
2016-09-26T01:11:08.114Z,98.63
2016-09-26T01:12:07.703Z,99.38
2016-09-26T01:13:08.260Z,99.13
2016-09-26T01:14:07.838Z,98.72
2016-09-26T01:15:08.508Z,99.33
2016-09-26T01:16:08.120Z,99.36
2016-09-26T01:17:07.858Z,99.38
2016-09-26T01:18:08.834Z,99.52
2016-09-26T01:19:08.411Z,99.29
2016-09-26T01:20:08.013Z,99.83
2016-09-26T01:21:07.597Z,99.13
2016-09-26T01:22:08.083Z,99.04
2016-09-26T01:23:07.913Z,99.78
2016-09-26T01:24:08.502Z,99.86
2016-09-26T01:25:08.001Z,99.76
2016-09-26T01:26:07.508Z,99.37
2016-09-26T01:27:08.108Z,99.08
2016-09-26T01:28:07.574Z,98.85
2016-09-26T01:29:08.379Z,98.81
2016-09-26T01:30:07.849Z,98.78
2016-09-26T01:31:08.509Z,98.84
2016-09-26T01:32:07.755Z,98.63
2016-09-26T01:33:08.493Z,99.95
2016-09-26T01:34:08.070Z,99.87
2016-09-26T01:35:07.807Z,99.55
2016-09-26T01:36:08.348Z,99.74
2016-09-26T01:37:07.926Z,99.19
2016-09-26T01:38:08.510Z,99.06
2016-09-26T01:39:08.281Z,98.85
2016-09-26T01:40:07.843Z,98.98
2016-09-26T01:41:08.631Z,99.00
2016-09-26T01:42:08.312Z,99.10
2016-09-26T01:43:07.917Z,99.18
2016-09-26T01:44:08.415Z,99.19
2016-09-26T01:45:13.653Z,99.28
2016-09-26T01:46:08.329Z,99.29
2016-09-26T01:47:08.671Z,99.08
2016-09-26T01:48:08.215Z,99.26
2016-09-26T01:49:07.722Z,99.12
2016-09-26T01:50:08.303Z,98.98
2016-09-26T01:51:07.873Z,99.20
2016-09-26T01:52:08.046Z,99.64
2016-09-26T01:53:07.643Z,99.68
2016-09-26T01:54:08.227Z,99.82
2016-09-26T01:55:08.066Z,99.20
2016-09-26T01:56:07.590Z,98.65
2016-09-26T01:57:08.134Z,98.83
2016-09-26T01:58:07.650Z,98.96
2016-09-26T01:59:08.184Z,98.93
2016-09-26T02:00:07.715Z,98.68
2016-09-26T02:01:08.325Z,98.56
2016-09-26T02:02:07.917Z,98.65
2016-09-26T02:03:07.616Z,98.76
2016-09-26T02:04:08.322Z,98.56
2016-09-26T02:05:07.893Z,98.87
2016-09-26T02:06:08.510Z,98.66
2016-09-26T02:07:07.987Z,98.55
2016-09-26T02:08:08.724Z,98.49
2016-09-26T02:09:08.478Z,98.65
2016-09-26T02:10:08.286Z,98.38
2016-09-26T02:11:07.732Z,98.17
2016-09-26T02:12:08.208Z,97.98
2016-09-26T02:13:07.679Z,97.90
2016-09-26T02:14:08.503Z,97.85
2016-09-26T02:15:08.307Z,97.93
2016-09-26T02:16:07.768Z,97.74
2016-09-26T02:17:08.386Z,97.54
2016-09-26T02:18:08.224Z,97.92
2016-09-26T02:19:07.767Z,98.36
2016-09-26T02:20:08.192Z,98.81
2016-09-26T02:21:08.308Z,98.94
2016-09-26T02:22:08.066Z,98.79
2016-09-26T02:23:07.600Z,98.18
2016-09-26T02:24:08.077Z,98.80
2016-09-26T02:25:07.647Z,98.81
2016-09-26T02:26:08.254Z,98.13
2016-09-26T02:27:07.729Z,98.47
2016-09-26T02:28:08.415Z,98.54
2016-09-26T02:29:08.422Z,98.25
2016-09-26T02:30:07.956Z,97.78
2016-09-26T02:31:07.676Z,97.73
2016-09-26T02:32:08.389Z,98.05
2016-09-26T02:33:08.435Z,97.90
2016-09-26T02:34:08.189Z,97.98
2016-09-26T02:35:07.820Z,98.29
2016-09-26T02:36:08.343Z,98.40
2016-09-26T02:37:07.806Z,98.13
2016-09-26T02:38:08.461Z,97.68
2016-09-26T02:39:07.974Z,97.27
2016-09-26T02:40:08.372Z,97.07
2016-09-26T02:41:07.833Z,97.32
2016-09-26T02:42:08.488Z,97.17
2016-09-26T02:43:08.213Z,97.34
2016-09-26T02:44:07.852Z,97.09
2016-09-26T02:45:08.488Z,97.23
2016-09-26T02:46:07.961Z,97.16
2016-09-26T02:47:07.450Z,97.23
2016-09-26T02:48:07.996Z,97.34
2016-09-26T02:49:08.290Z,97.37
2016-09-26T02:50:07.827Z,97.62
2016-09-26T02:51:08.366Z,97.94
2016-09-26T02:52:08.066Z,97.69
2016-09-26T02:53:07.564Z,97.36
2016-09-26T02:54:08.322Z,97.63
2016-09-26T02:55:07.877Z,97.36
2016-09-26T02:56:08.451Z,97.32
2016-09-26T02:57:08.028Z,97.62
2016-09-26T02:58:07.745Z,97.38
2016-09-26T02:59:08.374Z,97.59
2016-09-26T03:00:07.836Z,97.62
2016-09-26T03:01:08.380Z,97.75
2016-09-26T03:02:07.876Z,97.44
2016-09-26T03:03:08.501Z,97.36
2016-09-26T03:04:08.303Z,97.23
2016-09-26T03:05:07.834Z,96.99
2016-09-26T03:06:08.057Z,96.96
2016-09-26T03:07:07.579Z,97.28
2016-09-26T03:08:08.111Z,97.33
2016-09-26T03:09:07.694Z,97.45
2016-09-26T03:10:08.348Z,97.57
2016-09-26T03:11:07.793Z,97.66
2016-09-26T03:12:08.287Z,97.84
2016-09-26T03:13:07.997Z,97.35
2016-09-26T03:14:07.486Z,97.18
2016-09-26T03:15:08.327Z,97.31
2016-09-26T03:16:08.110Z,97.34
2016-09-26T03:17:07.791Z,97.45
2016-09-26T03:18:08.366Z,97.23
2016-09-26T03:19:08.125Z,97.26
2016-09-26T03:20:07.675Z,97.38
2016-09-26T03:21:08.598Z,97.22
2016-09-26T03:22:08.103Z,97.17
2016-09-26T03:23:07.662Z,97.28
2016-09-26T03:24:08.203Z,97.06
2016-09-26T03:25:07.731Z,97.37
2016-09-26T03:26:08.427Z,97.40
2016-09-26T03:27:08.006Z,97.45
2016-09-26T03:28:07.527Z,97.59
2016-09-26T03:29:08.027Z,97.46
2016-09-26T03:30:07.566Z,97.42
2016-09-26T03:31:08.161Z,97.23
2016-09-26T03:32:07.663Z,97.39
2016-09-26T03:33:08.228Z,97.56
2016-09-26T03:34:07.807Z,97.81
2016-09-26T03:35:08.324Z,97.47
2016-09-26T03:36:07.877Z,96.99
2016-09-26T03:37:08.411Z,97.01
2016-09-26T03:38:07.870Z,97.06
2016-09-26T03:39:08.424Z,97.25
2016-09-26T03:40:07.969Z,97.11
2016-09-26T03:41:07.568Z,96.91
2016-09-26T03:42:08.133Z,97.18
2016-09-26T03:43:07.717Z,96.93
2016-09-26T03:44:08.209Z,96.51
2016-09-26T03:45:07.708Z,96.53
2016-09-26T03:46:08.225Z,96.60
2016-09-26T03:47:07.777Z,96.63
2016-09-26T03:48:08.229Z,96.44
2016-09-26T03:49:07.856Z,96.34
2016-09-26T03:50:08.479Z,96.39
2016-09-26T03:51:07.994Z,96.70
2016-09-26T03:52:07.539Z,96.70
2016-09-26T03:53:08.116Z,96.78
2016-09-26T03:54:07.697Z,97.14
2016-09-26T03:55:08.276Z,96.72
2016-09-26T03:56:08.097Z,96.92
2016-09-26T03:57:07.617Z,97.06
2016-09-26T03:58:08.180Z,96.96
2016-09-26T03:59:07.756Z,96.81
2016-09-26T04:00:08.317Z,96.55
2016-09-26T04:01:07.932Z,96.87
2016-09-26T04:02:08.623Z,96.83
2016-09-26T04:03:08.148Z,96.80
2016-09-26T04:04:07.686Z,96.78
2016-09-26T04:05:08.214Z,97.11
2016-09-26T04:06:07.808Z,97.19
2016-09-26T04:07:08.379Z,97.31
2016-09-26T04:08:07.936Z,97.25
2016-09-26T04:09:07.465Z,97.22
2016-09-26T04:10:08.124Z,97.00
2016-09-26T04:11:07.727Z,97.04
2016-09-26T04:12:08.291Z,96.87
2016-09-26T04:13:07.817Z,96.34
2016-09-26T04:14:08.422Z,96.38
2016-09-26T04:15:07.958Z,96.56
2016-09-26T04:16:07.538Z,96.63
2016-09-26T04:17:08.222Z,96.82
2016-09-26T04:18:07.802Z,96.74
2016-09-26T04:19:08.433Z,96.44
2016-09-26T04:20:07.951Z,96.71
2016-09-26T04:21:07.474Z,96.80
2016-09-26T04:22:07.945Z,96.93
2016-09-26T04:23:07.473Z,96.86
2016-09-26T04:24:08.279Z,96.69
2016-09-26T04:25:10.780Z,96.36
2016-09-26T04:26:08.306Z,96.41
2016-09-26T04:27:07.771Z,96.46
2016-09-26T04:28:08.337Z,96.65
2016-09-26T04:29:07.853Z,96.55
2016-09-26T04:30:08.424Z,96.35
2016-09-26T04:31:08.013Z,96.23
2016-09-26T04:32:07.569Z,96.30
2016-09-26T04:33:08.087Z,96.00
2016-09-26T04:34:07.609Z,96.04
2016-09-26T04:35:08.173Z,96.08
2016-09-26T04:36:07.760Z,96.12
2016-09-26T04:37:08.396Z,96.45
2016-09-26T04:38:08.160Z,96.49
2016-09-26T04:39:07.784Z,96.75
2016-09-26T04:40:08.599Z,97.10
2016-09-26T04:41:08.346Z,96.79
2016-09-26T04:42:08.026Z,96.61
2016-09-26T04:43:07.518Z,96.25
2016-09-26T04:44:07.997Z,95.98
2016-09-26T04:45:07.487Z,96.42
2016-09-26T04:46:08.330Z,96.39
2016-09-26T04:47:07.900Z,96.42
2016-09-26T04:48:08.537Z,96.57
2016-09-26T04:49:08.105Z,96.74
2016-09-26T04:50:07.659Z,96.65
2016-09-26T04:51:08.507Z,96.50
2016-09-26T04:52:08.046Z,96.74
2016-09-26T04:53:07.577Z,96.54
2016-09-26T04:54:08.127Z,96.09
2016-09-26T04:55:07.680Z,96.01
2016-09-26T04:56:08.316Z,96.25
2016-09-26T04:57:08.118Z,96.28
2016-09-26T04:58:07.639Z,96.44
2016-09-26T04:59:08.218Z,96.45
2016-09-26T05:00:07.697Z,96.24
2016-09-26T05:01:08.283Z,96.11
2016-09-26T05:02:07.737Z,95.97
2016-09-26T05:03:08.235Z,96.37
2016-09-26T05:04:07.723Z,96.67
2016-09-26T05:05:08.298Z,96.75
2016-09-26T05:06:07.800Z,96.70
2016-09-26T05:07:08.349Z,96.63
2016-09-26T05:08:07.927Z,96.56
2016-09-26T05:09:08.410Z,96.80
2016-09-26T05:10:07.906Z,96.99
2016-09-26T05:11:08.424Z,96.82
2016-09-26T05:12:07.992Z,96.40
2016-09-26T05:13:07.556Z,96.73
2016-09-26T05:14:08.103Z,96.41
2016-09-26T05:15:07.607Z,96.63
2016-09-26T05:16:08.159Z,96.81
2016-09-26T05:17:07.895Z,96.89
2016-09-26T05:18:08.417Z,97.12
2016-09-26T05:19:07.885Z,96.80
2016-09-26T05:20:08.478Z,96.59
2016-09-26T05:21:07.967Z,96.72
2016-09-26T05:22:07.480Z,96.45
2016-09-26T05:23:08.017Z,96.83
2016-09-26T05:24:07.463Z,96.84
2016-09-26T05:25:08.034Z,96.88
2016-09-26T05:26:07.485Z,96.66
2016-09-26T05:27:07.978Z,96.89
2016-09-26T05:28:07.712Z,96.10
2016-09-26T05:29:08.255Z,96.49
2016-09-26T05:30:07.752Z,96.50
2016-09-26T05:31:08.236Z,96.24
2016-09-26T05:32:07.797Z,96.48
2016-09-26T05:33:08.353Z,96.83
2016-09-26T05:34:07.949Z,96.40
2016-09-26T05:35:07.515Z,96.38
2016-09-26T05:36:08.101Z,96.23
2016-09-26T05:37:07.640Z,95.88
2016-09-26T05:38:08.367Z,96.27
2016-09-26T05:39:07.909Z,96.29
2016-09-26T05:40:08.463Z,95.96
2016-09-26T05:41:08.024Z,96.11
2016-09-26T05:42:07.552Z,95.85
2016-09-26T05:43:08.097Z,95.74
2016-09-26T05:44:07.700Z,96.18
2016-09-26T05:45:08.256Z,96.24
2016-09-26T05:46:07.783Z,96.01
2016-09-26T05:47:08.400Z,95.73
2016-09-26T05:48:07.966Z,95.96
2016-09-26T05:49:07.423Z,96.59
2016-09-26T05:50:07.969Z,96.57
2016-09-26T05:51:07.473Z,96.63
2016-09-26T05:52:08.157Z,96.31
2016-09-26T05:53:07.706Z,96.07
2016-09-26T05:54:08.186Z,96.01
2016-09-26T05:55:07.676Z,95.81
2016-09-26T05:56:08.207Z,95.77
2016-09-26T05:57:07.735Z,95.72
2016-09-26T05:58:08.215Z,96.33
2016-09-26T05:59:07.745Z,96.89
2016-09-26T06:00:08.306Z,96.60
2016-09-26T06:01:07.874Z,96.50
2016-09-26T06:02:08.464Z,96.64
2016-09-26T06:03:08.003Z,96.51
2016-09-26T06:04:07.456Z,97.31
2016-09-26T06:05:08.304Z,97.84
2016-09-26T06:06:07.775Z,97.99
2016-09-26T06:07:08.309Z,97.91
2016-09-26T06:08:07.899Z,97.83
2016-09-26T06:09:08.417Z,97.43
2016-09-26T06:10:07.933Z,97.06
2016-09-26T06:11:07.471Z,96.96
2016-09-26T06:12:08.027Z,96.42
2016-09-26T06:13:07.613Z,96.34
2016-09-26T06:14:08.124Z,96.81
2016-09-26T06:15:07.675Z,97.00
2016-09-26T06:16:08.265Z,97.38
2016-09-26T06:17:07.926Z,97.30
2016-09-26T06:18:08.521Z,96.63
2016-09-26T06:19:08.166Z,96.56
2016-09-26T06:20:07.633Z,96.64
2016-09-26T06:21:08.184Z,96.86
2016-09-26T06:22:07.725Z,97.05
2016-09-26T06:23:08.493Z,97.50
2016-09-26T06:24:08.034Z,97.32
2016-09-26T06:25:07.726Z,97.45
2016-09-26T06:26:08.386Z,97.22
2016-09-26T06:27:07.930Z,97.86
2016-09-26T06:28:08.501Z,97.42
2016-09-26T06:29:08.056Z,97.62
2016-09-26T06:30:07.611Z,97.16
2016-09-26T06:31:08.378Z,96.69
2016-09-26T06:32:07.990Z,96.94
2016-09-26T06:33:07.566Z,97.03
2016-09-26T06:34:07.979Z,96.89
2016-09-26T06:35:08.031Z,96.60
2016-09-26T06:36:07.545Z,96.69
2016-09-26T06:37:08.028Z,95.99
2016-09-26T06:38:08.206Z,96.70
2016-09-26T06:39:07.750Z,96.31
2016-09-26T06:40:08.356Z,96.51
2016-09-26T06:41:07.943Z,95.40
2016-09-26T06:42:07.444Z,96.02
2016-09-26T06:43:07.959Z,96.26
2016-09-26T06:44:07.533Z,96.06
2016-09-26T06:45:08.098Z,94.23
2016-09-26T06:46:07.666Z,95.47
2016-09-26T06:47:08.303Z,96.19
2016-09-26T06:48:07.843Z,95.78
2016-09-26T06:49:08.382Z,96.74
2016-09-26T06:50:07.895Z,96.27
2016-09-26T06:51:08.477Z,96.93
2016-09-26T06:52:08.006Z,97.36
2016-09-26T06:53:07.460Z,96.27
2016-09-26T06:54:08.018Z,96.55
2016-09-26T06:55:07.512Z,96.67
2016-09-26T06:56:08.034Z,95.97
2016-09-26T06:57:07.495Z,96.37
2016-09-26T06:58:08.067Z,97.13
2016-09-26T06:59:07.657Z,97.18
2016-09-26T07:00:08.153Z,96.26
2016-09-26T07:01:07.623Z,96.30
2016-09-26T07:02:08.237Z,95.07
2016-09-26T07:03:08.040Z,96.14
2016-09-26T07:04:07.536Z,95.18
2016-09-26T07:05:13.732Z,95.22
2016-09-26T07:06:08.356Z,94.47
2016-09-26T07:07:07.936Z,93.38
2016-09-26T07:08:07.489Z,93.02
2016-09-26T07:09:08.055Z,93.57
2016-09-26T07:10:07.516Z,91.71
2016-09-26T07:11:08.094Z,92.32
2016-09-26T07:12:07.559Z,91.79
2016-09-26T07:13:08.149Z,89.57
2016-09-26T07:14:14.040Z,88.60
2016-09-26T07:15:07.517Z,89.78
2016-09-26T07:16:07.660Z,89.54
2016-09-26T07:17:08.327Z,88.45
2016-09-26T07:18:07.823Z,89.62
2016-09-26T07:19:08.476Z,89.49
2016-09-26T07:20:08.043Z,88.26
2016-09-26T07:21:07.603Z,88.32
2016-09-26T07:22:08.284Z,88.21
2016-09-26T07:23:07.787Z,88.76
2016-09-26T07:24:08.398Z,88.03
2016-09-26T07:25:07.977Z,88.73
2016-09-26T07:26:07.525Z,85.35
2016-09-26T07:27:08.039Z,85.12
2016-09-26T07:28:07.499Z,85.56
2016-09-26T07:29:08.184Z,86.65
2016-09-26T07:30:07.662Z,86.09
2016-09-26T07:31:08.254Z,85.12
2016-09-26T07:32:07.766Z,85.87
2016-09-26T07:33:08.300Z,85.93
2016-09-26T07:34:07.907Z,84.26
2016-09-26T07:35:08.437Z,84.46
2016-09-26T07:36:08.035Z,83.77
2016-09-26T07:37:07.613Z,84.01
2016-09-26T07:38:08.410Z,84.11
2016-09-26T07:39:08.990Z,83.92
2016-09-26T07:40:07.478Z,83.63
2016-09-26T07:41:08.089Z,83.85
2016-09-26T07:42:07.609Z,82.85
2016-09-26T07:43:08.210Z,81.63
2016-09-26T07:44:07.717Z,81.71
2016-09-26T07:45:08.276Z,81.82
2016-09-26T07:46:07.771Z,81.69
2016-09-26T07:47:08.264Z,81.36
2016-09-26T07:48:07.808Z,80.47
2016-09-26T07:49:08.382Z,80.72
2016-09-26T07:50:08.254Z,80.22
2016-09-26T07:51:07.735Z,80.03
2016-09-26T07:52:08.266Z,80.13
2016-09-26T07:53:07.878Z,80.86
2016-09-26T07:54:08.426Z,80.27
2016-09-26T07:55:08.039Z,80.21
2016-09-26T07:56:07.491Z,80.66
2016-09-26T07:57:08.069Z,80.57
2016-09-26T07:58:07.736Z,80.40
2016-09-26T07:59:08.316Z,80.03
2016-09-26T08:00:07.955Z,80.07
2016-09-26T08:01:07.468Z,78.74
2016-09-26T08:02:08.047Z,78.35
2016-09-26T08:03:07.569Z,78.41
2016-09-26T08:04:08.236Z,77.70
2016-09-26T08:05:07.824Z,76.95
2016-09-26T08:06:08.439Z,77.51
2016-09-26T08:07:08.074Z,77.39
2016-09-26T08:08:07.612Z,77.37
2016-09-26T08:09:08.141Z,76.87
2016-09-26T08:10:07.797Z,76.75
2016-09-26T08:11:08.363Z,77.54
2016-09-26T08:12:07.857Z,77.63
2016-09-26T08:13:08.349Z,77.54
2016-09-26T08:14:07.839Z,76.47
2016-09-26T08:15:08.465Z,76.75
2016-09-26T08:16:07.887Z,76.54
2016-09-26T08:17:08.631Z,75.72
2016-09-26T08:18:08.200Z,76.07
2016-09-26T08:19:07.881Z,76.30
2016-09-26T08:20:08.387Z,76.54
2016-09-26T08:21:07.904Z,75.49
2016-09-26T08:22:08.498Z,75.92
2016-09-26T08:23:07.965Z,75.78
2016-09-26T08:24:07.559Z,75.83
2016-09-26T08:25:13.944Z,74.77
2016-09-26T08:26:07.515Z,74.77
2016-09-26T08:27:07.991Z,75.06
2016-09-26T08:28:07.635Z,75.59
2016-09-26T08:29:08.185Z,75.84
2016-09-26T08:30:07.766Z,76.71
2016-09-26T08:31:08.336Z,76.22
2016-09-26T08:32:07.929Z,76.33
2016-09-26T08:33:08.510Z,76.99
2016-09-26T08:34:08.090Z,76.66
2016-09-26T08:35:07.709Z,76.58
2016-09-26T08:36:08.309Z,76.38
2016-09-26T08:37:07.903Z,76.68
2016-09-26T08:38:08.506Z,76.32
2016-09-26T08:39:08.107Z,76.14
2016-09-26T08:40:07.613Z,75.59
2016-09-26T08:41:08.142Z,75.70
2016-09-26T08:42:07.713Z,75.84
2016-09-26T08:43:08.323Z,75.16
2016-09-26T08:44:07.893Z,74.17
2016-09-26T08:45:08.522Z,74.36
2016-09-26T08:46:08.009Z,73.85
2016-09-26T08:47:07.562Z,73.76
2016-09-26T08:48:08.028Z,73.98
2016-09-26T08:49:07.530Z,74.45
2016-09-26T08:50:08.113Z,74.27
2016-09-26T08:51:07.687Z,74.22
2016-09-26T08:52:08.204Z,73.86
2016-09-26T08:53:07.846Z,73.37
2016-09-26T08:54:08.455Z,73.94
2016-09-26T08:55:07.969Z,73.48
2016-09-26T08:56:07.588Z,74.01
2016-09-26T08:57:08.198Z,73.39
2016-09-26T08:58:07.775Z,73.38
2016-09-26T08:59:08.446Z,74.13
2016-09-26T09:00:07.924Z,73.14
2016-09-26T09:01:08.521Z,72.05
2016-09-26T09:02:08.016Z,72.31
2016-09-26T09:03:07.628Z,73.37
2016-09-26T09:04:08.117Z,72.86
2016-09-26T09:05:07.671Z,72.88
2016-09-26T09:06:07.834Z,73.21
2016-09-26T09:07:08.487Z,72.26
2016-09-26T09:08:08.052Z,72.27
2016-09-26T09:09:07.623Z,72.66
2016-09-26T09:10:08.162Z,72.49
2016-09-26T09:11:07.752Z,72.93
2016-09-26T09:12:08.301Z,72.89
2016-09-26T09:13:07.917Z,72.88
2016-09-26T09:14:08.521Z,73.20
2016-09-26T09:15:08.028Z,73.13
2016-09-26T09:16:07.571Z,72.92
2016-09-26T09:17:08.223Z,73.74
2016-09-26T09:18:07.781Z,73.16
2016-09-26T09:19:08.336Z,73.02
2016-09-26T09:20:07.927Z,73.07
2016-09-26T09:21:08.561Z,73.17
2016-09-26T09:22:13.958Z,73.28
2016-09-26T09:23:07.613Z,72.87
2016-09-26T09:24:08.198Z,72.08
2016-09-26T09:25:07.719Z,71.70
2016-09-26T09:26:08.303Z,71.83
2016-09-26T09:27:07.899Z,72.27
2016-09-26T09:28:16.006Z,72.17
2016-09-26T09:29:07.521Z,71.55
2016-09-26T09:30:08.101Z,71.46
2016-09-26T09:31:07.658Z,71.48
2016-09-26T09:32:08.332Z,71.97
2016-09-26T09:33:07.909Z,72.55
2016-09-26T09:34:08.536Z,71.87
2016-09-26T09:35:08.088Z,71.34
2016-09-26T09:36:07.575Z,70.90
2016-09-26T09:37:08.077Z,71.42
2016-09-26T09:38:07.618Z,71.83
2016-09-26T09:39:08.239Z,71.55
2016-09-26T09:40:07.851Z,71.19
2016-09-26T09:41:08.431Z,69.87
2016-09-26T09:42:07.983Z,68.22
2016-09-26T09:43:07.535Z,68.20
2016-09-26T09:44:08.052Z,68.23
2016-09-26T09:45:07.617Z,68.56
2016-09-26T09:46:08.169Z,68.73
2016-09-26T09:47:07.644Z,68.23
2016-09-26T09:48:08.153Z,68.32
2016-09-26T09:49:07.656Z,68.20
2016-09-26T09:50:08.256Z,67.51
2016-09-26T09:51:07.813Z,67.70
2016-09-26T09:52:08.362Z,68.11
2016-09-26T09:53:07.975Z,68.46
2016-09-26T09:54:07.475Z,66.65
2016-09-26T09:55:08.067Z,67.61
2016-09-26T09:56:07.595Z,67.29
2016-09-26T09:57:08.225Z,67.38
2016-09-26T09:58:07.705Z,67.72
2016-09-26T09:59:08.273Z,66.11
2016-09-26T10:00:07.779Z,65.56
2016-09-26T10:01:08.259Z,65.73
2016-09-26T10:02:07.745Z,65.94
2016-09-26T10:03:08.296Z,66.04
2016-09-26T10:04:07.859Z,66.18
2016-09-26T10:05:08.424Z,66.27
2016-09-26T10:06:07.905Z,65.68
2016-09-26T10:07:08.494Z,65.09
2016-09-26T10:08:08.106Z,63.87
2016-09-26T10:09:07.586Z,64.93
2016-09-26T10:10:08.105Z,65.16
2016-09-26T10:11:07.676Z,64.19
2016-09-26T10:12:08.304Z,64.75
2016-09-26T10:13:07.915Z,65.42
2016-09-26T10:14:08.477Z,65.82
2016-09-26T10:15:08.021Z,65.33
2016-09-26T10:16:07.493Z,65.65
2016-09-26T10:17:08.242Z,66.38
2016-09-26T10:18:07.790Z,66.12
2016-09-26T10:19:08.403Z,66.06
2016-09-26T10:20:07.856Z,65.15
2016-09-26T10:21:08.501Z,65.69
2016-09-26T10:22:07.966Z,66.10
2016-09-26T10:23:08.062Z,66.42
2016-09-26T10:24:07.666Z,66.35
2016-09-26T10:25:08.326Z,66.41
2016-09-26T10:26:07.915Z,66.41
2016-09-26T10:27:08.499Z,64.94
2016-09-26T10:28:08.082Z,65.12
2016-09-26T10:29:07.616Z,64.94
2016-09-26T10:30:08.196Z,64.02
2016-09-26T10:31:07.724Z,64.07
2016-09-26T10:32:08.327Z,62.18
2016-09-26T10:33:07.919Z,62.66
2016-09-26T10:34:08.524Z,63.14
2016-09-26T10:35:08.105Z,63.13
2016-09-26T10:36:07.597Z,63.42
2016-09-26T10:37:08.204Z,64.05
2016-09-26T10:38:07.715Z,63.48
2016-09-26T10:39:08.271Z,63.76
2016-09-26T10:40:07.897Z,63.55
2016-09-26T10:41:08.477Z,62.59
2016-09-26T10:42:08.051Z,63.12
2016-09-26T10:43:07.642Z,62.93
2016-09-26T10:44:08.195Z,62.89
2016-09-26T10:45:07.755Z,62.59
2016-09-26T10:46:08.308Z,61.64
2016-09-26T10:47:07.850Z,62.86
2016-09-26T10:48:08.386Z,62.69
2016-09-26T10:49:07.976Z,62.88
2016-09-26T10:50:07.537Z,63.52
2016-09-26T10:51:08.062Z,64.23
2016-09-26T10:52:07.563Z,63.60
2016-09-26T10:53:08.197Z,63.06
2016-09-26T10:54:07.747Z,63.04
2016-09-26T10:55:08.340Z,64.52
2016-09-26T10:56:07.851Z,63.96
2016-09-26T10:57:08.455Z,62.21
2016-09-26T10:58:07.975Z,63.38
2016-09-26T10:59:07.453Z,64.57
2016-09-26T11:00:08.163Z,63.40
2016-09-26T11:01:14.936Z,64.74
2016-09-26T11:02:07.434Z,65.05
2016-09-26T11:03:08.009Z,63.90
2016-09-26T11:04:07.486Z,64.75
2016-09-26T11:05:08.178Z,64.89
2016-09-26T11:06:07.701Z,66.28
2016-09-26T11:07:08.225Z,66.67
2016-09-26T11:08:07.826Z,65.13
2016-09-26T11:09:08.342Z,64.31
2016-09-26T11:10:07.776Z,64.31
2016-09-26T11:11:08.423Z,63.81
2016-09-26T11:12:07.942Z,64.39
2016-09-26T11:13:08.603Z,64.75
2016-09-26T11:14:08.175Z,63.41
2016-09-26T11:15:07.730Z,64.05
2016-09-26T11:16:08.368Z,63.71
2016-09-26T11:17:08.057Z,63.75
2016-09-26T11:18:07.545Z,64.48
2016-09-26T11:19:08.095Z,64.86
2016-09-26T11:20:07.660Z,65.38
2016-09-26T11:21:08.169Z,64.94
2016-09-26T11:22:07.720Z,62.03
2016-09-26T11:23:08.466Z,62.13
2016-09-26T11:24:08.095Z,62.44
2016-09-26T11:25:07.574Z,62.73
2016-09-26T11:26:08.154Z,63.35
2016-09-26T11:27:07.749Z,63.15
2016-09-26T11:28:08.314Z,63.18
2016-09-26T11:29:07.906Z,62.28
2016-09-26T11:30:08.531Z,61.83
2016-09-26T11:31:08.092Z,62.12
2016-09-26T11:32:07.670Z,62.34
2016-09-26T11:33:08.145Z,61.88
2016-09-26T11:34:07.688Z,62.44
2016-09-26T11:35:08.288Z,62.91
2016-09-26T11:36:07.759Z,62.23
2016-09-26T11:37:08.278Z,62.45
2016-09-26T11:38:07.819Z,63.22
2016-09-26T11:39:08.449Z,62.86
2016-09-26T11:40:07.927Z,63.84
2016-09-26T11:41:08.409Z,64.31
2016-09-26T11:42:07.876Z,63.91
2016-09-26T11:43:08.404Z,64.70
2016-09-26T11:44:07.957Z,65.35
2016-09-26T11:45:07.586Z,65.39
2016-09-26T11:46:08.189Z,64.80
2016-09-26T11:47:07.691Z,64.71
2016-09-26T11:48:08.286Z,65.17
2016-09-26T11:49:07.751Z,65.16
2016-09-26T11:50:07.659Z,64.74
2016-09-26T11:51:08.957Z,64.59
2016-09-26T11:52:07.468Z,64.69
2016-09-26T11:53:08.052Z,64.92
2016-09-26T11:54:07.606Z,65.62
2016-09-26T11:55:08.145Z,66.33
2016-09-26T11:56:07.625Z,66.63
2016-09-26T11:57:08.183Z,66.92
2016-09-26T11:58:07.741Z,66.64
2016-09-26T11:59:08.295Z,66.84
2016-09-26T12:00:07.835Z,67.21
2016-09-26T12:01:08.432Z,67.32
2016-09-26T12:02:07.969Z,67.34
2016-09-26T12:03:07.422Z,67.28
2016-09-26T12:04:07.989Z,66.30
2016-09-26T12:05:07.573Z,65.85
2016-09-26T12:06:08.148Z,65.91
2016-09-26T12:07:07.658Z,66.23
2016-09-26T12:08:08.183Z,66.56
2016-09-26T12:09:07.693Z,64.27
2016-09-26T12:10:08.319Z,63.93
2016-09-26T12:11:07.910Z,64.13
2016-09-26T12:12:08.503Z,63.91
2016-09-26T12:13:08.034Z,64.01
2016-09-26T12:14:07.536Z,63.63
2016-09-26T12:15:08.162Z,63.60
2016-09-26T12:16:07.670Z,63.42
2016-09-26T12:17:08.487Z,63.13
2016-09-26T12:18:09.002Z,64.22
2016-09-26T12:19:07.541Z,64.70
2016-09-26T12:20:08.187Z,64.76
2016-09-26T12:21:07.703Z,65.07
2016-09-26T12:22:08.324Z,64.26
2016-09-26T12:23:07.769Z,63.27
2016-09-26T12:24:08.354Z,63.54
2016-09-26T12:25:08.007Z,62.98
2016-09-26T12:26:07.517Z,62.34
2016-09-26T12:27:08.094Z,62.76
2016-09-26T12:28:07.642Z,63.98
2016-09-26T12:29:08.272Z,63.48
2016-09-26T12:30:07.914Z,62.70
2016-09-26T12:31:08.430Z,63.51
2016-09-26T12:32:08.004Z,62.09
2016-09-26T12:33:07.447Z,61.50
2016-09-26T12:34:08.023Z,62.52
2016-09-26T12:35:07.574Z,61.85
2016-09-26T12:36:08.162Z,61.44
2016-09-26T12:37:07.658Z,61.60
2016-09-26T12:38:08.232Z,62.73
2016-09-26T12:39:07.848Z,62.80
2016-09-26T12:40:08.479Z,63.13
2016-09-26T12:41:07.978Z,63.97
2016-09-26T12:42:07.597Z,64.41
2016-09-26T12:43:08.099Z,64.94
2016-09-26T12:44:07.606Z,65.11
2016-09-26T12:45:08.221Z,65.28
2016-09-26T12:46:07.729Z,64.95
2016-09-26T12:47:08.245Z,64.53
2016-09-26T12:48:07.737Z,64.14
2016-09-26T12:49:08.239Z,62.85
2016-09-26T12:50:07.762Z,62.63
2016-09-26T12:51:08.392Z,63.25
2016-09-26T12:52:07.943Z,63.31